createdAt,value
2019-04-11T00:01:33.940Z,36.13
2019-04-11T00:03:53.514Z,37.60
2019-04-11T00:06:23.905Z,37.63
2019-04-11T00:08:54.353Z,31.70
2019-04-11T00:11:28.200Z,37.63
2019-04-11T00:13:59.884Z,35.77
2019-04-11T00:16:31.022Z,35.07
2019-04-11T00:19:01.735Z,38.13
2019-04-11T00:21:32.890Z,36.17
2019-04-11T00:24:04.877Z,37.77
2019-04-11T00:26:36.454Z,36.97
2019-04-11T00:29:06.998Z,35.80
2019-04-11T00:31:37.329Z,35.80
2019-04-11T00:34:10.960Z,36.27
2019-04-11T00:36:41.114Z,37.47
2019-04-11T00:39:13.242Z,34.57
2019-04-11T00:41:44.150Z,37.10
2019-04-11T00:44:14.660Z,36.87
2019-04-11T00:46:44.977Z,36.20
2019-04-11T00:49:15.455Z,36.63
2019-04-11T00:51:47.710Z,35.73
2019-04-11T00:54:18.469Z,36.73
2019-04-11T00:56:50.612Z,36.50
2019-04-11T00:59:22.234Z,34.90
2019-04-11T01:01:53.388Z,35.63
2019-04-11T01:04:23.517Z,35.73
2019-04-11T01:06:54.333Z,35.57
2019-04-11T01:09:24.536Z,34.23
2019-04-11T01:11:54.994Z,31.93
2019-04-11T01:14:25.802Z,35.77
2019-04-11T01:16:56.912Z,35.07
2019-04-11T01:19:28.882Z,33.20
2019-04-11T01:21:59.551Z,37.53
2019-04-11T01:24:29.977Z,29.73
2019-04-11T01:27:01.481Z,31.93
2019-04-11T01:29:31.653Z,31.70
2019-04-11T01:32:06.556Z,33.27
2019-04-11T01:34:37.233Z,32.77
2019-04-11T01:37:09.241Z,31.60
2019-04-11T01:39:59.386Z,33.30
2019-04-11T01:42:31.610Z,30.33
2019-04-11T01:45:03.510Z,32.60
2019-04-11T01:47:59.830Z,31.53
2019-04-11T01:50:32.857Z,31.17
2019-04-11T01:53:04.342Z,31.30
2019-04-11T01:55:34.840Z,31.27
2019-04-11T01:58:05.227Z,31.97
2019-04-11T02:00:54.541Z,30.40
2019-04-11T02:03:35.100Z,27.87
2019-04-11T02:06:07.577Z,30.70
2019-04-11T02:08:40.174Z,31.47
2019-04-11T02:11:10.478Z,29.53
2019-04-11T02:13:41.812Z,31.73
2019-04-11T02:16:12.644Z,31.13
2019-04-11T02:18:43.706Z,29.93
2019-04-11T02:21:15.671Z,30.13
2019-04-11T02:24:04.381Z,30.93
2019-04-11T02:26:36.039Z,31.53
2019-04-11T02:29:06.947Z,30.83
2019-04-11T02:31:36.924Z,27.37
2019-04-11T02:34:08.688Z,28.67
2019-04-11T02:36:40.446Z,32.27
2019-04-11T02:39:16.942Z,31.10
2019-04-11T02:41:44.512Z,31.40
2019-04-11T02:44:30.676Z,28.77
2019-04-11T02:46:54.432Z,29.00
2019-04-11T02:49:21.297Z,27.67
2019-04-11T02:51:51.367Z,30.50
2019-04-11T02:54:24.568Z,28.83
2019-04-11T02:56:57.721Z,26.83
2019-04-11T02:59:29.674Z,29.40
2019-04-11T03:02:00.455Z,28.13
2019-04-11T03:04:31.638Z,29.53
2019-04-11T03:07:03.788Z,29.03
2019-04-11T03:09:35.229Z,26.10
2019-04-11T03:12:07.239Z,29.73
2019-04-11T03:14:54.111Z,29.17
2019-04-11T03:17:17.394Z,28.10
2019-04-11T03:19:54.758Z,26.67
2019-04-11T03:22:14.075Z,25.83
2019-04-11T03:24:44.112Z,28.17
2019-04-11T03:27:15.611Z,25.80
2019-04-11T03:29:45.862Z,28.77
2019-04-11T03:33:14.904Z,29.67
2019-04-11T03:37:47.492Z,27.67
2019-04-11T03:40:15.021Z,27.27
2019-04-11T03:42:41.748Z,27.87
2019-04-11T03:45:20.587Z,28.77
2019-04-11T03:47:40.882Z,27.43
2019-04-11T03:50:08.150Z,28.60
2019-04-11T03:52:36.652Z,27.97
2019-04-11T03:55:08.310Z,27.03
2019-04-11T03:57:39.373Z,27.93
2019-04-11T04:00:12.441Z,28.07
2019-04-11T04:02:41.955Z,30.20
2019-04-11T04:05:13.014Z,28.87
2019-04-11T04:07:44.419Z,30.20
2019-04-11T04:10:15.797Z,29.37
2019-04-11T04:12:47.503Z,27.20
2019-04-11T04:15:53.504Z,29.57
2019-04-11T04:18:21.286Z,25.50
2019-04-11T04:21:10.543Z,30.00
2019-04-11T04:23:45.567Z,29.93
2019-04-11T04:26:16.870Z,29.90
2019-04-11T04:28:48.274Z,30.00
2019-04-11T04:31:18.886Z,30.67
2019-04-11T04:33:51.254Z,28.37
2019-04-11T04:36:22.311Z,29.13
2019-04-11T04:38:52.683Z,29.43
2019-04-11T04:41:35.049Z,27.83
2019-04-11T04:43:57.710Z,30.77
2019-04-11T04:46:42.338Z,29.43
2019-04-11T04:48:59.400Z,30.23
2019-04-11T04:51:29.417Z,29.73
2019-04-11T04:54:00.535Z,26.97
2019-04-11T04:56:32.205Z,32.17
2019-04-11T04:59:04.732Z,31.13
2019-04-11T05:01:35.119Z,29.97
2019-04-11T05:04:05.326Z,31.90
2019-04-11T05:06:36.785Z,29.70
2019-04-11T05:09:08.595Z,29.93
2019-04-11T05:11:38.917Z,31.70
2019-04-11T05:14:10.362Z,30.43
2019-04-11T05:16:41.773Z,31.30
2019-04-11T05:19:12.860Z,22.43
2019-04-11T05:21:43.608Z,33.40
2019-04-11T05:24:14.508Z,31.73
2019-04-11T05:26:44.167Z,29.90
2019-04-11T05:29:15.208Z,30.80
2019-04-11T05:31:44.928Z,30.27
2019-04-11T05:34:14.717Z,29.70
2019-04-11T05:36:44.984Z,24.93
2019-04-11T05:39:16.006Z,27.87
2019-04-11T05:41:47.122Z,26.27
2019-04-11T05:44:17.283Z,27.00
2019-04-11T05:46:54.944Z,28.97
2019-04-11T05:49:36.168Z,28.07
2019-04-11T05:52:06.378Z,28.87
2019-04-11T05:54:49.766Z,25.73
2019-04-11T05:57:23.777Z,26.93
2019-04-11T05:59:53.451Z,29.53
2019-04-11T06:02:37.344Z,29.03
2019-04-11T06:05:37.226Z,29.43
2019-04-11T06:08:09.852Z,29.23
2019-04-11T06:10:48.479Z,29.60
2019-04-11T06:13:37.003Z,29.70
2019-04-11T06:16:06.780Z,27.20
2019-04-11T06:18:54.748Z,25.70
2019-04-11T06:21:40.567Z,29.20
2019-04-11T06:24:48.222Z,29.77
2019-04-11T06:27:43.320Z,28.17
2019-04-11T06:30:35.393Z,27.73
2019-04-11T06:33:27.333Z,27.73
2019-04-11T06:36:30.007Z,29.63
2019-04-11T06:39:16.226Z,29.47
2019-04-11T06:42:01.170Z,28.27
2019-04-11T06:44:52.762Z,27.57
2019-04-11T06:47:41.009Z,27.63
2019-04-11T06:50:19.439Z,26.00
2019-04-11T06:52:50.923Z,26.20
2019-04-11T06:55:42.684Z,27.43
2019-04-11T06:58:21.353Z,27.93
2019-04-11T07:00:57.892Z,25.10
2019-04-11T07:03:32.413Z,26.90
2019-04-11T07:06:07.011Z,26.37
2019-04-11T07:08:49.085Z,23.13
2019-04-11T07:11:20.474Z,26.57
2019-04-11T07:14:10.288Z,22.47
2019-04-11T07:17:04.284Z,27.03
2019-04-11T07:19:48.106Z,25.30
2019-04-11T07:22:36.848Z,26.53
2019-04-11T07:25:24.164Z,26.33
2019-04-11T07:28:03.708Z,26.73
2019-04-11T07:30:50.997Z,25.87
2019-04-11T07:33:49.554Z,26.63
2019-04-11T07:36:36.719Z,25.77
2019-04-11T07:39:33.607Z,25.50
2019-04-11T07:42:21.358Z,26.20
2019-04-11T07:44:59.690Z,26.70
2019-04-11T07:47:46.405Z,25.63
2019-04-11T07:50:18.191Z,26.13
2019-04-11T07:52:53.919Z,26.83
2019-04-11T07:55:25.797Z,26.97
2019-04-11T07:58:13.197Z,26.43
2019-04-11T08:00:59.284Z,25.83
2019-04-11T08:03:47.026Z,27.10
2019-04-11T08:06:34.158Z,26.83
2019-04-11T08:09:28.981Z,27.73
2019-04-11T08:12:03.052Z,25.53
2019-04-11T08:14:51.062Z,28.30
2019-04-11T08:17:30.803Z,27.60
2019-04-11T08:20:13.172Z,27.93
2019-04-11T08:22:49.574Z,28.87
2019-04-11T08:25:37.649Z,27.27
2019-04-11T08:28:12.433Z,29.97
2019-04-11T08:31:01.413Z,26.67
2019-04-11T08:33:35.106Z,27.10
2019-04-11T08:36:24.029Z,25.27
2019-04-11T08:38:53.745Z,27.90
2019-04-11T08:41:49.720Z,26.10
2019-04-11T08:44:32.631Z,27.63
2019-04-11T08:47:07.856Z,27.80
2019-04-11T08:49:42.775Z,27.80
2019-04-11T08:52:46.971Z,28.27
2019-04-11T08:55:24.113Z,27.10
2019-04-11T08:57:58.356Z,27.83
2019-04-11T09:00:42.374Z,27.50
2019-04-11T09:04:02.143Z,27.47
2019-04-11T09:06:29.074Z,27.73
2019-04-11T09:09:16.875Z,28.13
2019-04-11T09:11:49.975Z,28.33
2019-04-11T09:14:41.747Z,26.80
2019-04-11T09:17:14.408Z,27.13
2019-04-11T09:20:07.493Z,24.80
2019-04-11T09:22:59.572Z,27.07
2019-04-11T09:25:50.410Z,26.73
2019-04-11T09:28:29.123Z,24.87
2019-04-11T09:31:30.278Z,26.20
2019-04-11T09:34:24.445Z,27.07
2019-04-11T09:37:16.998Z,26.13
2019-04-11T09:40:12.659Z,24.97
2019-04-11T09:43:04.529Z,27.73
2019-04-11T09:45:52.754Z,26.60
2019-04-11T09:48:31.530Z,27.90
2019-04-11T09:51:21.335Z,26.80
2019-04-11T09:53:59.905Z,27.47
2019-04-11T09:57:00.252Z,27.03
2019-04-11T09:59:36.986Z,26.97
2019-04-11T10:02:29.383Z,27.80
2019-04-11T10:05:02.625Z,26.93
2019-04-11T10:07:54.460Z,26.47
2019-04-11T10:10:49.534Z,27.87
2019-04-11T10:13:39.216Z,27.53
2019-04-11T10:16:29.536Z,26.73
2019-04-11T10:19:31.767Z,25.13
2019-04-11T10:22:13.105Z,26.97
2019-04-11T10:25:05.179Z,26.63
2019-04-11T10:27:55.218Z,27.30
2019-04-11T10:30:44.104Z,27.43
2019-04-11T10:33:28.822Z,27.10
2019-04-11T10:36:18.875Z,28.40
2019-04-11T10:38:53.447Z,28.83
2019-04-11T10:41:32.699Z,26.87
2019-04-11T10:44:02.952Z,26.67
2019-04-11T10:46:49.646Z,28.37
2019-04-11T10:49:30.290Z,28.80
2019-04-11T10:52:12.079Z,28.13
2019-04-11T10:54:42.916Z,28.23
2019-04-11T10:57:38.318Z,28.27
2019-04-11T11:00:16.584Z,27.77
2019-04-11T11:03:04.747Z,27.47
2019-04-11T11:05:38.012Z,29.20
2019-04-11T11:08:39.839Z,27.53
2019-04-11T11:11:24.103Z,27.60
2019-04-11T11:14:28.979Z,28.33
2019-04-11T11:17:17.535Z,28.10
2019-04-11T11:20:16.358Z,28.50
2019-04-11T11:22:57.705Z,27.63
2019-04-11T11:25:48.887Z,29.07
2019-04-11T11:28:21.502Z,26.10
2019-04-11T11:31:11.840Z,28.00
2019-04-11T11:33:44.926Z,27.43
2019-04-11T11:36:36.963Z,28.30
2019-04-11T11:39:17.361Z,27.83
2019-04-11T11:42:06.224Z,27.47
2019-04-11T11:44:44.706Z,27.47
2019-04-11T11:47:36.167Z,27.63
2019-04-11T11:50:10.526Z,26.43
2019-04-11T11:52:57.391Z,27.20
2019-04-11T11:55:31.522Z,25.37
2019-04-11T11:58:21.506Z,27.03
2019-04-11T12:00:53.878Z,27.47
2019-04-11T12:03:46.971Z,27.87
2019-04-11T12:06:22.238Z,28.07
2019-04-11T12:09:09.862Z,27.83
2019-04-11T12:11:42.589Z,27.83
2019-04-11T12:14:29.932Z,26.23
2019-04-11T12:17:12.233Z,26.83
2019-04-11T12:19:54.671Z,27.87
2019-04-11T12:22:22.132Z,26.80
2019-04-11T12:25:17.052Z,24.03
2019-04-11T12:28:25.582Z,25.20
2019-04-11T12:31:03.799Z,27.07
2019-04-11T12:33:55.554Z,27.43
2019-04-11T12:36:30.523Z,27.03
2019-04-11T12:39:19.887Z,27.97
2019-04-11T12:42:08.308Z,26.43
2019-04-11T12:44:46.455Z,27.03
2019-04-11T12:47:43.826Z,27.60
2019-04-11T12:50:31.020Z,27.80
2019-04-11T12:53:10.271Z,28.33
2019-04-11T12:55:59.361Z,28.30
2019-04-11T12:58:55.859Z,26.80
2019-04-11T13:01:45.599Z,27.70
2019-04-11T13:04:37.984Z,25.90
2019-04-11T13:07:33.176Z,27.93
2019-04-11T13:10:11.960Z,26.07
2019-04-11T13:13:09.441Z,26.63
2019-04-11T13:15:42.035Z,26.80
2019-04-11T13:18:29.995Z,26.00
2019-04-11T13:21:16.113Z,26.43
2019-04-11T13:24:11.367Z,24.60
2019-04-11T13:27:11.660Z,27.77
2019-04-11T13:30:00.847Z,24.80
2019-04-11T13:32:43.939Z,26.03
2019-04-11T13:35:20.077Z,25.57
2019-04-11T13:38:04.012Z,27.60
2019-04-11T13:41:01.993Z,26.47
2019-04-11T13:43:54.963Z,24.67
2019-04-11T13:46:43.173Z,23.80
2019-04-11T13:49:41.781Z,27.50
2019-04-11T13:52:30.861Z,26.00
2019-04-11T13:55:31.848Z,25.83
2019-04-11T13:58:26.986Z,24.73
2019-04-11T14:01:02.034Z,26.93
2019-04-11T14:03:57.825Z,24.20
2019-04-11T14:06:38.481Z,27.17
2019-04-11T14:09:40.005Z,25.37
2019-04-11T14:12:14.348Z,27.37
2019-04-11T14:14:53.857Z,24.00
2019-04-11T14:17:41.585Z,27.47
2019-04-11T14:20:41.938Z,27.97
2019-04-11T14:23:33.653Z,28.50
2019-04-11T14:26:23.976Z,28.37
2019-04-11T14:28:58.296Z,28.33
2019-04-11T14:31:50.876Z,27.40
2019-04-11T14:34:41.326Z,26.90
2019-04-11T14:37:38.092Z,27.27
2019-04-11T14:40:21.703Z,28.43
2019-04-11T14:43:20.052Z,27.17
2019-04-11T14:46:18.525Z,27.87
2019-04-11T14:48:50.975Z,27.07
2019-04-11T14:51:40.611Z,25.30
2019-04-11T14:54:17.114Z,27.53
2019-04-11T14:56:54.734Z,27.83
2019-04-11T14:59:45.783Z,28.27
2019-04-11T15:02:46.055Z,27.27
2019-04-11T15:05:34.095Z,26.07
2019-04-11T15:08:10.195Z,28.70
2019-04-11T15:11:02.530Z,27.33
2019-04-11T15:13:33.684Z,28.77
2019-04-11T15:16:22.025Z,28.73
2019-04-11T15:18:56.969Z,29.13
2019-04-11T15:21:46.092Z,27.67
2019-04-11T15:24:17.209Z,27.97
2019-04-11T15:27:06.575Z,28.23
2019-04-11T15:29:39.255Z,27.83
2019-04-11T15:32:46.670Z,29.03
2019-04-11T15:35:17.327Z,27.93
2019-04-11T15:38:05.082Z,28.93
2019-04-11T15:40:38.365Z,29.27
2019-04-11T15:43:30.913Z,28.10
2019-04-11T15:46:04.302Z,28.20
2019-04-11T15:48:54.559Z,28.90
2019-04-11T15:51:43.814Z,28.47
2019-04-11T15:54:34.865Z,28.73
2019-04-11T15:57:12.730Z,28.13
2019-04-11T16:00:14.745Z,28.70
2019-04-11T16:03:03.054Z,29.13
2019-04-11T16:05:50.911Z,27.73
2019-04-11T16:08:43.564Z,28.10
2019-04-11T16:11:42.470Z,30.03
2019-04-11T16:14:46.790Z,28.80
2019-04-11T16:17:36.121Z,28.43
2019-04-11T16:20:19.695Z,28.33
2019-04-11T16:23:08.785Z,29.23
2019-04-11T16:25:41.215Z,28.57
2019-04-11T16:28:30.379Z,28.47
2019-04-11T16:31:00.599Z,28.37
2019-04-11T16:33:47.956Z,28.40
2019-04-11T16:36:37.078Z,27.57
2019-04-11T16:39:50.162Z,29.67
2019-04-11T16:42:36.003Z,28.13
2019-04-11T16:45:26.313Z,26.30
2019-04-11T16:48:06.060Z,26.47
2019-04-11T16:50:36.313Z,28.10
2019-04-11T16:53:10.596Z,27.53
2019-04-11T16:55:41.979Z,26.20
2019-04-11T16:58:15.138Z,26.80
2019-04-11T17:00:43.337Z,28.10
2019-04-11T17:03:13.730Z,27.27
2019-04-11T17:05:55.523Z,27.30
2019-04-11T17:08:34.188Z,25.70
2019-04-11T17:11:09.774Z,25.40
2019-04-11T17:13:39.953Z,26.63
2019-04-11T17:16:15.138Z,26.63
2019-04-11T17:18:46.065Z,26.50
2019-04-11T17:21:16.255Z,27.50
2019-04-11T17:23:48.315Z,27.40
2019-04-11T17:26:18.543Z,27.90
2019-04-11T17:28:49.240Z,28.27
2019-04-11T17:31:19.389Z,27.47
2019-04-11T17:33:49.965Z,27.17
2019-04-11T17:36:20.011Z,30.00
2019-04-11T17:38:50.480Z,28.03
2019-04-11T17:41:20.680Z,28.07
2019-04-11T17:43:51.799Z,27.70
2019-04-11T17:46:22.417Z,28.20
2019-04-11T17:48:54.019Z,28.83
2019-04-11T17:51:24.269Z,28.00
2019-04-11T17:54:03.564Z,29.03
2019-04-11T17:56:33.682Z,28.83
2019-04-11T17:59:03.889Z,28.80
2019-04-11T18:01:38.088Z,29.43
2019-04-11T18:04:08.966Z,28.67
2019-04-11T18:06:40.516Z,29.13
2019-04-11T18:09:12.825Z,28.90
2019-04-11T18:11:42.943Z,28.87
2019-04-11T18:14:13.307Z,28.97
2019-04-11T18:16:43.589Z,28.37
2019-04-11T18:19:13.773Z,29.77
2019-04-11T18:21:44.079Z,26.20
2019-04-11T18:24:14.588Z,30.93
2019-04-11T18:26:45.042Z,29.03
2019-04-11T18:29:16.546Z,29.37
2019-04-11T18:31:49.435Z,29.47
2019-04-11T18:34:20.141Z,30.50
2019-04-11T18:36:50.267Z,30.57
2019-04-11T18:39:20.441Z,29.97
2019-04-11T18:41:51.068Z,29.63
2019-04-11T18:44:21.128Z,30.17
2019-04-11T18:46:50.597Z,30.40
2019-04-11T18:49:21.847Z,30.20
2019-04-11T18:51:53.124Z,30.00
2019-04-11T18:54:23.475Z,30.37
2019-04-11T18:56:53.769Z,30.47
2019-04-11T18:59:23.384Z,28.47
2019-04-11T19:01:52.819Z,28.93
2019-04-11T19:04:31.954Z,29.30
2019-04-11T19:06:54.280Z,30.07
2019-04-11T19:09:24.217Z,29.67
2019-04-11T19:11:53.881Z,29.67
2019-04-11T19:14:28.700Z,30.60
2019-04-11T19:16:58.253Z,29.33
2019-04-11T19:19:27.797Z,30.10
2019-04-11T19:21:57.326Z,28.93
2019-04-11T19:24:35.488Z,28.57
2019-04-11T19:26:58.380Z,30.83
2019-04-11T19:29:29.056Z,28.77
2019-04-11T19:31:58.526Z,30.70
2019-04-11T19:34:28.437Z,29.80
2019-04-11T19:36:58.000Z,29.97
2019-04-11T19:39:29.194Z,29.63
2019-04-11T19:41:58.741Z,29.43
2019-04-11T19:44:29.126Z,29.33
2019-04-11T19:47:00.383Z,30.27
2019-04-11T19:49:30.625Z,30.53
2019-04-11T19:52:01.488Z,30.30
2019-04-11T19:54:32.951Z,29.80
2019-04-11T19:57:06.894Z,30.63
2019-04-11T19:59:36.529Z,29.57
2019-04-11T20:02:07.493Z,30.80
2019-04-11T20:04:36.957Z,30.87
2019-04-11T20:07:06.638Z,30.80
2019-04-11T20:09:36.252Z,30.13
2019-04-11T20:12:06.266Z,30.20
2019-04-11T20:14:35.748Z,29.93
2019-04-11T20:17:09.248Z,29.47
2019-04-11T20:19:40.904Z,30.37
2019-04-11T20:22:10.689Z,29.53
2019-04-11T20:24:40.481Z,30.13
2019-04-11T20:27:09.969Z,29.90
2019-04-11T20:29:40.112Z,29.43
2019-04-11T20:32:09.656Z,29.43
2019-04-11T20:34:39.622Z,30.23
2019-04-11T20:37:12.660Z,29.50
2019-04-11T20:39:46.281Z,28.87
2019-04-11T20:42:13.048Z,29.00
2019-04-11T20:44:42.496Z,27.87
2019-04-11T20:47:12.551Z,27.77
2019-04-11T20:49:49.223Z,28.17
2019-04-11T20:52:19.179Z,28.00
2019-04-11T20:54:48.655Z,27.93
2019-04-11T20:57:25.617Z,28.20
2019-04-11T20:59:50.794Z,28.67
2019-04-11T21:02:20.495Z,28.00
2019-04-11T21:04:50.578Z,28.40
2019-04-11T21:07:20.018Z,28.50
2019-04-11T21:09:49.927Z,29.50
2019-04-11T21:12:19.484Z,28.33
2019-04-11T21:14:49.388Z,27.87
2019-04-11T21:17:19.031Z,27.23
2019-04-11T21:19:50.996Z,28.37
2019-04-11T21:22:23.968Z,27.07
2019-04-11T21:24:53.139Z,28.67
2019-04-11T21:27:22.680Z,28.60
2019-04-11T21:29:52.798Z,28.87
2019-04-11T21:32:22.679Z,27.37
2019-04-11T21:34:55.685Z,29.17
2019-04-11T21:37:25.207Z,27.87
2019-04-11T21:39:54.960Z,28.63
2019-04-11T21:42:24.397Z,25.00
2019-04-11T21:44:54.209Z,28.60
2019-04-11T21:47:23.685Z,28.33
2019-04-11T21:49:53.501Z,28.97
2019-04-11T21:52:22.939Z,29.37
2019-04-11T21:54:52.366Z,29.10
2019-04-11T21:57:21.803Z,27.53
2019-04-11T21:59:52.171Z,28.97
2019-04-11T22:02:24.304Z,28.13
2019-04-11T22:04:53.352Z,28.47
2019-04-11T22:07:23.247Z,28.17
2019-04-11T22:09:52.693Z,27.47
2019-04-11T22:12:22.458Z,28.27
2019-04-11T22:14:51.875Z,26.70
2019-04-11T22:17:21.327Z,27.20
2019-04-11T22:19:51.359Z,29.10
2019-04-11T22:22:20.889Z,25.30
2019-04-11T22:24:50.353Z,25.60
2019-04-11T22:27:23.316Z,26.73
2019-04-11T22:29:54.969Z,26.00
2019-04-11T22:32:26.490Z,27.23
2019-04-11T22:34:56.832Z,27.20
2019-04-11T22:37:30.083Z,27.90
2019-04-11T22:40:02.109Z,28.03
2019-04-11T22:42:32.055Z,29.70
2019-04-11T22:45:01.688Z,27.83
2019-04-11T22:47:31.490Z,28.33
2019-04-11T22:50:03.155Z,28.43
2019-04-11T22:52:32.570Z,28.67
2019-04-11T22:55:01.910Z,27.43
2019-04-11T22:57:32.140Z,23.93
2019-04-11T23:00:02.552Z,24.50
2019-04-11T23:02:51.363Z,23.10
2019-04-11T23:05:20.852Z,23.10
2019-04-11T23:07:50.342Z,22.60
2019-04-11T23:10:21.298Z,23.77
2019-04-11T23:12:51.199Z,21.73
2019-04-11T23:15:20.978Z,21.50
2019-04-11T23:17:50.487Z,20.83
2019-04-11T23:20:19.970Z,21.13
2019-04-11T23:22:49.505Z,19.93
2019-04-11T23:25:18.930Z,18.67
2019-04-11T23:27:48.369Z,15.30
2019-04-11T23:30:19.078Z,14.57
2019-04-11T23:32:50.831Z,17.80
2019-04-11T23:35:21.280Z,17.53
2019-04-11T23:37:51.982Z,15.77
2019-04-11T23:40:21.996Z,15.20
2019-04-11T23:42:51.566Z,17.00
2019-04-11T23:45:23.990Z,16.90
2019-04-11T23:47:54.495Z,14.77
2019-04-11T23:50:25.281Z,16.33
2019-04-11T23:52:57.939Z,15.03
2019-04-11T23:55:29.993Z,18.07
2019-04-11T23:58:01.699Z,17.43
